Aviation Digital Data Service (ADDS)

Output produced by METARs form (0154 UTC 25 February 2018)
found at http://aviationweather.gov/adds/metars/
 
KCRG 242325Z 2500/2524 15006KT P6SM FEW040 
     FM250400 18003KT P6SM FEW040 SCT120 
     FM250900 17003KT 5SM BR SCT006 SCT030 
     FM251400 20007KT P6SM SCT030 
     FM252100 16009KT P6SM SCT040